Time,TemperatureF,DewpointF,PressureIn,WindDirection,WindDirectionDegrees,WindSpeedMPH,WindSpeedGustMPH,Humidity,HourlyPrecipIn,Conditions,Clouds,dailyrainin,SolarRadiationWatts/m^2,SoftwareType,DateUTC
2013-03-13 00:02:00,19.5,13.5,30.25,NNW,328,0.0,9.0,77,0.00,,---,0.00,0.00,VWS V14.00,2013-03-13 05:02:00,
2013-03-13 00:07:00,19.3,13.6,30.25,WNW,303,8.0,12.0,78,0.00,,---,0.00,0.00,VWS V14.00,2013-03-13 05:07:00,
2013-03-13 00:12:00,19.2,13.5,30.25,WNW,302,5.0,12.0,78,0.00,,---,0.00,0.00,VWS V14.00,2013-03-13 05:12:00,
2013-03-13 00:17:00,19.1,13.4,30.25,WNW,300,7.0,12.0,78,0.00,,---,0.00,0.00,VWS V14.00,2013-03-13 05:17:00,
2013-03-13 00:22:00,19.0,13.3,30.25,WNW,296,10.0,14.0,78,0.00,,---,0.00,0.00,VWS V14.00,2013-03-13 05:22:00,
2013-03-13 00:27:00,19.0,13.3,30.25,WNW,299,5.0,14.0,78,0.00,,---,0.00,0.00,VWS V14.00,2013-03-13 05:27:00,
2013-03-13 00:32:00,18.9,13.2,30.25,NW,313,5.0,11.0,78,0.00,,---,0.00,0.00,VWS V14.00,2013-03-13 05:32:00,
2013-03-13 00:37:00,18.7,13.0,30.26,NW,307,7.0,11.0,78,0.00,,---,0.00,0.00,VWS V14.00,2013-03-13 05:37:00,
2013-03-13 00:42:00,18.6,13.2,30.26,WNW,298,4.0,11.0,79,0.00,,---,0.00,0.00,VWS V14.00,2013-03-13 05:42:00,
2013-03-13 00:47:00,18.5,13.1,30.26,NW,315,3.0,11.0,79,0.00,,---,0.00,0.00,VWS V14.00,2013-03-13 05:47:00,
2013-03-13 00:52:00,18.5,13.1,30.26,NW,325,3.0,11.0,79,0.00,,---,0.00,0.00,VWS V14.00,2013-03-13 05:52:00,
2013-03-13 00:57:00,18.4,13.0,30.27,WNW,301,10.0,10.0,79,0.00,,---,0.00,0.00,VWS V14.00,2013-03-13 05:57:00,
2013-03-13 01:02:00,18.3,12.9,30.26,WNW,302,4.0,11.0,79,0.00,,---,0.00,0.00,VWS V14.00,2013-03-13 06:02:00,
2013-03-13 01:07:00,18.3,12.9,30.26,NW,324,3.0,11.0,79,0.00,,---,0.00,0.00,VWS V14.00,2013-03-13 06:07:00,
2013-03-13 01:13:00,18.2,12.8,30.26,NW,318,4.0,11.0,79,0.00,,---,0.00,0.00,VWS V14.00,2013-03-13 06:13:00,
2013-03-13 01:18:00,18.2,12.8,30.27,NW,304,5.0,11.0,79,0.00,,---,0.00,0.00,VWS V14.00,2013-03-13 06:18:00,
2013-03-13 01:23:00,18.1,12.7,30.27,NW,310,2.0,11.0,79,0.00,,---,0.00,0.00,VWS V14.00,2013-03-13 06:23:00,
2013-03-13 01:28:00,17.9,12.5,30.27,NW,320,3.0,6.0,79,0.00,,---,0.00,0.00,VWS V14.00,2013-03-13 06:28:00,
2013-03-13 01:33:00,17.8,12.7,30.27,WNW,302,4.0,9.0,80,0.00,,---,0.00,0.00,VWS V14.00,2013-03-13 06:33:00,
2013-03-13 01:38:00,17.7,12.6,30.27,NW,311,8.0,9.0,80,0.00,,---,0.00,0.00,VWS V14.00,2013-03-13 06:38:00,
2013-03-13 01:43:00,17.7,12.6,30.28,NW,321,5.0,10.0,80,0.00,,---,0.00,0.00,VWS V14.00,2013-03-13 06:43:00,
2013-03-13 01:48:00,17.6,12.5,30.28,NW,306,5.0,11.0,80,0.00,,---,0.00,0.00,VWS V14.00,2013-03-13 06:48:00,
2013-03-13 01:53:00,17.4,12.3,30.28,NNW,338,1.0,11.0,80,0.00,,---,0.00,0.00,VWS V14.00,2013-03-13 06:53:00,
2013-03-13 01:58:00,17.3,12.5,30.28,NW,312,5.0,7.0,81,0.00,,---,0.00,0.00,VWS V14.00,2013-03-13 06:58:00,
2013-03-13 02:03:00,17.2,12.4,30.28,NNW,331,3.0,7.0,81,0.00,,---,0.00,0.00,VWS V14.00,2013-03-13 07:03:00,
2013-03-13 02:08:00,17.2,12.4,30.28,NW,315,3.0,9.0,81,0.00,,---,0.00,0.00,VWS V14.00,2013-03-13 07:08:00,
2013-03-13 02:13:00,17.3,12.5,30.29,NW,313,0.0,9.0,81,0.00,,---,0.00,0.00,VWS V14.00,2013-03-13 07:13:00,
2013-03-13 02:19:00,17.2,12.4,30.29,WNW,302,3.0,9.0,81,0.00,,---,0.00,0.00,VWS V14.00,2013-03-13 07:19:00,
2013-03-13 02:24:00,17.1,12.3,30.29,NW,320,4.0,9.0,81,0.00,,---,0.00,0.00,VWS V14.00,2013-03-13 07:24:00,
2013-03-13 02:29:00,16.9,12.1,30.29,WNW,302,5.0,8.0,81,0.00,,---,0.00,0.00,VWS V14.00,2013-03-13 07:29:00,
2013-03-13 02:34:00,16.8,12.3,30.30,NW,308,4.0,8.0,82,0.00,,---,0.00,0.00,VWS V14.00,2013-03-13 07:34:00,
2013-03-13 02:39:00,16.7,12.2,30.30,WNW,300,5.0,10.0,82,0.00,,---,0.00,0.00,VWS V14.00,2013-03-13 07:39:00,
2013-03-13 02:44:00,16.5,12.0,30.30,WNW,299,3.0,10.0,82,0.00,,---,0.00,0.00,VWS V14.00,2013-03-13 07:44:00,
2013-03-13 02:49:00,16.2,11.7,30.30,NW,316,2.0,10.0,82,0.00,,---,0.00,0.00,VWS V14.00,2013-03-13 07:49:00,
2013-03-13 02:54:00,16.0,11.5,30.30,NW,312,9.0,10.0,82,0.00,,---,0.00,0.00,VWS V14.00,2013-03-13 07:54:00,
2013-03-13 02:59:00,15.9,11.4,30.30,NW,305,5.0,7.0,82,0.00,,---,0.00,0.00,VWS V14.00,2013-03-13 07:59:00,
2013-03-13 03:04:00,15.8,11.3,30.30,WNW,295,6.0,10.0,82,0.00,,---,0.00,0.00,VWS V14.00,2013-03-13 08:04:00,
2013-03-13 03:09:00,15.7,11.2,30.30,NW,313,5.0,10.0,82,0.00,,---,0.00,0.00,VWS V14.00,2013-03-13 08:09:00,
2013-03-13 03:14:00,15.6,11.4,30.30,NW,313,4.0,10.0,83,0.00,,---,0.00,0.00,VWS V14.00,2013-03-13 08:14:00,
2013-03-13 03:19:00,15.5,11.3,30.30,NNW,333,4.0,10.0,83,0.00,,---,0.00,0.00,VWS V14.00,2013-03-13 08:19:00,
2013-03-13 03:24:00,15.4,11.2,30.30,NW,324,4.0,10.0,83,0.00,,---,0.00,0.00,VWS V14.00,2013-03-13 08:24:00,
2013-03-13 03:29:00,15.3,11.1,30.30,NW,311,5.0,9.0,83,0.00,,---,0.00,0.00,VWS V14.00,2013-03-13 08:29:00,
2013-03-13 03:34:00,15.2,11.0,30.30,NW,321,6.0,10.0,83,0.00,,---,0.00,0.00,VWS V14.00,2013-03-13 08:34:00,
2013-03-13 03:39:00,15.1,10.9,30.31,NW,304,4.0,10.0,83,0.00,,---,0.00,0.00,VWS V14.00,2013-03-13 08:39:00,
2013-03-13 03:44:00,14.9,10.7,30.31,NW,311,3.0,10.0,83,0.00,,---,0.00,0.00,VWS V14.00,2013-03-13 08:44:00,
2013-03-13 03:49:00,14.7,10.8,30.31,NW,323,2.0,10.0,84,0.00,,---,0.00,0.00,VWS V14.00,2013-03-13 08:49:00,
2013-03-13 03:54:00,14.5,10.6,30.31,NW,321,4.0,10.0,84,0.00,,---,0.00,0.00,VWS V14.00,2013-03-13 08:54:00,
2013-03-13 03:59:00,14.3,10.4,30.31,NW,317,8.0,10.0,84,0.00,,---,0.00,0.00,VWS V14.00,2013-03-13 08:59:00,
2013-03-13 04:04:00,14.3,10.4,30.31,WNW,296,3.0,10.0,84,0.00,,---,0.00,0.00,VWS V14.00,2013-03-13 09:04:00,
2013-03-13 04:09:00,14.1,10.2,30.31,NW,313,5.0,10.0,84,0.00,,---,0.00,0.00,VWS V14.00,2013-03-13 09:09:00,
2013-03-13 04:14:00,13.9,10.0,30.31,WNW,299,3.0,10.0,84,0.00,,---,0.00,0.00,VWS V14.00,2013-03-13 09:14:00,
2013-03-13 04:20:00,13.7,10.0,30.31,NW,304,6.0,10.0,85,0.00,,---,0.00,0.00,VWS V14.00,2013-03-13 09:20:00,
2013-03-13 04:25:00,13.8,10.1,30.31,NW,311,2.0,10.0,85,0.00,,---,0.00,0.00,VWS V14.00,2013-03-13 09:25:00,
2013-03-13 04:30:00,13.7,10.0,30.31,NW,311,6.0,9.0,85,0.00,,---,0.00,0.00,VWS V14.00,2013-03-13 09:30:00,
2013-03-13 04:35:00,13.7,10.0,30.31,NW,306,5.0,10.0,85,0.00,,---,0.00,0.00,VWS V14.00,2013-03-13 09:35:00,
2013-03-13 04:40:00,13.6,9.9,30.32,NW,306,7.0,10.0,85,0.00,,---,0.00,0.00,VWS V14.00,2013-03-13 09:40:00,
2013-03-13 04:45:00,13.6,9.9,30.32,NW,313,2.0,10.0,85,0.00,,---,0.00,0.00,VWS V14.00,2013-03-13 09:45:00,
2013-03-13 04:50:00,13.4,9.7,30.32,NW,309,6.0,10.0,85,0.00,,---,0.00,0.00,VWS V14.00,2013-03-13 09:50:00,
2013-03-13 04:55:00,13.3,9.6,30.32,NW,319,3.0,12.0,85,0.00,,---,0.00,0.00,VWS V14.00,2013-03-13 09:55:00,
2013-03-13 05:00:00,13.1,9.4,30.32,NW,306,6.0,9.0,85,0.00,,---,0.00,0.00,VWS V14.00,2013-03-13 10:00:00,
2013-03-13 05:05:00,13.0,9.4,30.33,NNW,331,4.0,9.0,85,0.00,,---,0.00,0.00,VWS V14.00,2013-03-13 10:05:00,
2013-03-13 05:10:00,12.8,9.4,30.33,NW,305,4.0,9.0,86,0.00,,---,0.00,0.00,VWS V14.00,2013-03-13 10:10:00,
2013-03-13 05:15:00,12.8,9.4,30.33,NW,315,5.0,9.0,86,0.00,,---,0.00,0.00,VWS V14.00,2013-03-13 10:15:00,
2013-03-13 05:20:00,12.7,9.3,30.33,NW,318,3.0,9.0,86,0.00,,---,0.00,0.00,VWS V14.00,2013-03-13 10:20:00,
2013-03-13 05:26:00,12.7,9.3,30.33,NW,318,4.0,11.0,86,0.00,,---,0.00,0.00,VWS V14.00,2013-03-13 10:26:00,
2013-03-13 05:31:00,12.6,9.2,30.34,NNW,328,10.0,11.0,86,0.00,,---,0.00,0.00,VWS V14.00,2013-03-13 10:31:00,
2013-03-13 05:36:00,12.6,9.2,30.34,NW,308,5.0,11.0,86,0.00,,---,0.00,0.00,VWS V14.00,2013-03-13 10:36:00,
2013-03-13 05:41:00,12.5,9.1,30.34,WNW,302,6.0,11.0,86,0.00,,---,0.00,0.00,VWS V14.00,2013-03-13 10:41:00,
2013-03-13 05:46:00,12.4,9.0,30.34,NW,305,6.0,11.0,86,0.00,,---,0.00,0.00,VWS V14.00,2013-03-13 10:46:00,
2013-03-13 05:51:00,12.4,9.3,30.35,NW,315,6.0,11.0,87,0.00,,---,0.00,0.00,VWS V14.00,2013-03-13 10:51:00,
2013-03-13 05:56:00,12.3,9.2,30.35,WNW,296,7.0,11.0,87,0.00,,---,0.00,0.00,VWS V14.00,2013-03-13 10:56:00,
2013-03-13 06:01:00,12.3,9.2,30.35,NNW,327,9.0,11.0,87,0.00,,---,0.00,0.00,VWS V14.00,2013-03-13 11:01:00,
2013-03-13 06:06:00,12.2,9.1,30.35,NW,323,5.0,11.0,87,0.00,,---,0.00,0.00,VWS V14.00,2013-03-13 11:06:00,
2013-03-13 06:11:00,12.1,9.0,30.35,NW,309,6.0,11.0,87,0.00,,---,0.00,0.00,VWS V14.00,2013-03-13 11:11:00,
2013-03-13 06:17:00,12.1,9.0,30.35,WNW,300,5.0,11.0,87,0.00,,---,0.00,0.00,VWS V14.00,2013-03-13 11:17:00,
2013-03-13 06:22:00,12.1,9.0,30.36,NW,312,9.0,11.0,87,0.00,,---,0.00,0.00,VWS V14.00,2013-03-13 11:22:00,
2013-03-13 06:27:00,12.1,9.0,30.36,NW,321,9.0,11.0,87,0.00,,---,0.00,0.00,VWS V14.00,2013-03-13 11:27:00,
2013-03-13 06:32:00,12.0,8.9,30.36,NW,323,5.0,9.0,87,0.00,,---,0.00,0.00,VWS V14.00,2013-03-13 11:32:00,
2013-03-13 06:37:00,11.9,8.8,30.36,NNW,333,7.0,9.0,87,0.00,,---,0.00,0.00,VWS V14.00,2013-03-13 11:37:00,
2013-03-13 06:42:00,11.8,8.7,30.36,NW,313,4.0,9.0,87,0.00,,---,0.00,0.00,VWS V14.00,2013-03-13 11:42:00,
2013-03-13 06:47:00,11.8,8.7,30.37,NW,315,4.0,10.0,87,0.00,,---,0.00,0.00,VWS V14.00,2013-03-13 11:47:00,
2013-03-13 06:52:00,11.8,8.7,30.37,NNW,328,3.0,10.0,87,0.00,,---,0.00,0.00,VWS V14.00,2013-03-13 11:52:00,
2013-03-13 06:57:00,11.8,8.7,30.37,NW,310,2.0,10.0,87,0.00,,---,0.00,0.00,VWS V14.00,2013-03-13 11:57:00,
2013-03-13 07:02:00,11.8,8.7,30.37,NW,306,1.0,6.0,87,0.00,,---,0.00,0.00,VWS V14.00,2013-03-13 12:02:00,
2013-03-13 07:07:00,11.8,8.7,30.37,NW,314,3.0,7.0,87,0.00,,---,0.00,0.00,VWS V14.00,2013-03-13 12:07:00,
2013-03-13 07:13:00,11.8,8.7,30.37,NW,312,3.0,7.0,87,0.00,,---,0.00,0.00,VWS V14.00,2013-03-13 12:13:00,
2013-03-13 07:18:00,11.8,8.7,30.38,NW,325,3.0,7.0,87,0.00,,---,0.00,0.00,VWS V14.00,2013-03-13 12:18:00,
2013-03-13 07:23:00,11.8,8.7,30.37,NNW,328,1.0,7.0,87,0.00,,---,0.00,0.00,VWS V14.00,2013-03-13 12:23:00,
2013-03-13 07:28:00,11.8,8.7,30.38,NW,313,2.0,3.0,87,0.00,,---,0.00,5.00,VWS V14.00,2013-03-13 12:28:00,
2013-03-13 07:33:00,11.7,8.6,30.38,NW,311,5.0,5.0,87,0.00,,---,0.00,7.00,VWS V14.00,2013-03-13 12:33:00,
2013-03-13 07:38:00,11.6,8.5,30.38,WNW,296,6.0,8.0,87,0.00,,---,0.00,9.00,VWS V14.00,2013-03-13 12:38:00,
2013-03-13 07:43:00,11.6,8.5,30.38,NW,304,2.0,8.0,87,0.00,,---,0.00,11.00,VWS V14.00,2013-03-13 12:43:00,
2013-03-13 07:48:00,11.6,8.5,30.38,NW,309,3.0,8.0,87,0.00,,---,0.00,14.00,VWS V14.00,2013-03-13 12:48:00,
2013-03-13 07:53:00,11.4,8.3,30.38,NW,304,2.0,8.0,87,0.00,,---,0.00,16.00,VWS V14.00,2013-03-13 12:53:00,
2013-03-13 07:58:00,11.4,8.3,30.38,NW,305,1.0,3.0,87,0.00,,---,0.00,19.00,VWS V14.00,2013-03-13 12:58:00,
2013-03-13 08:03:00,11.4,8.3,30.38,WNW,302,0.0,5.0,87,0.00,,---,0.00,21.00,VWS V14.00,2013-03-13 13:03:00,
2013-03-13 08:08:00,11.5,8.4,30.38,WNW,302,1.0,5.0,87,0.00,,---,0.00,25.00,VWS V14.00,2013-03-13 13:08:00,
2013-03-13 08:13:00,11.6,8.5,30.38,NW,305,1.0,5.0,87,0.00,,---,0.00,28.00,VWS V14.00,2013-03-13 13:13:00,
2013-03-13 08:18:00,11.7,8.6,30.39,NW,306,2.0,5.0,87,0.00,,---,0.00,30.00,VWS V14.00,2013-03-13 13:18:00,
2013-03-13 08:24:00,11.8,8.7,30.39,WNW,300,1.0,5.0,87,0.00,,---,0.00,33.00,VWS V14.00,2013-03-13 13:24:00,
2013-03-13 08:29:00,11.9,8.8,30.39,North,349,0.0,1.0,87,0.00,,---,0.00,35.00,VWS V14.00,2013-03-13 13:29:00,
2013-03-13 08:34:00,12.1,9.0,30.39,NW,307,1.0,3.0,87,0.00,,---,0.00,40.00,VWS V14.00,2013-03-13 13:34:00,
2013-03-13 08:39:00,12.2,8.8,30.39,NW,307,0.0,3.0,86,0.00,,---,0.00,42.00,VWS V14.00,2013-03-13 13:39:00,
2013-03-13 08:44:00,12.3,8.9,30.39,NW,308,0.0,3.0,86,0.00,,---,0.00,46.00,VWS V14.00,2013-03-13 13:44:00,
2013-03-13 08:49:00,12.5,9.1,30.40,NW,308,0.0,3.0,86,0.00,,---,0.00,51.00,VWS V14.00,2013-03-13 13:49:00,
2013-03-13 08:54:00,12.7,9.3,30.40,NW,308,0.0,3.0,86,0.00,,---,0.00,51.00,VWS V14.00,2013-03-13 13:54:00,
2013-03-13 08:59:00,12.9,9.5,30.40,NW,308,0.0,1.0,86,0.00,,---,0.00,69.00,VWS V14.00,2013-03-13 13:59:00,
2013-03-13 09:04:00,13.1,9.7,30.40,NW,309,0.0,3.0,86,0.00,,---,0.00,76.00,VWS V14.00,2013-03-13 14:04:00,
2013-03-13 09:09:00,13.4,9.7,30.41,NW,318,1.0,4.0,85,0.00,,---,0.00,76.00,VWS V14.00,2013-03-13 14:09:00,
2013-03-13 09:14:00,13.5,9.8,30.41,NW,318,3.0,4.0,85,0.00,,---,0.00,72.00,VWS V14.00,2013-03-13 14:14:00,
2013-03-13 09:19:00,13.6,9.7,30.41,NW,313,2.0,4.0,84,0.00,,---,0.00,74.00,VWS V14.00,2013-03-13 14:19:00,
2013-03-13 09:24:00,13.8,9.9,30.42,NW,313,0.0,4.0,84,0.00,,---,0.00,60.00,VWS V14.00,2013-03-13 14:24:00,
2013-03-13 09:29:00,14.0,10.1,30.42,NW,313,0.0,0.0,84,0.00,,---,0.00,79.00,VWS V14.00,2013-03-13 14:29:00,
2013-03-13 09:34:00,14.2,10.3,30.42,NW,313,0.0,2.0,84,0.00,,---,0.00,97.00,VWS V14.00,2013-03-13 14:34:00,
2013-03-13 09:39:00,14.4,10.2,30.42,WSW,250,0.0,4.0,83,0.00,,---,0.00,83.00,VWS V14.00,2013-03-13 14:39:00,
2013-03-13 09:44:00,14.7,10.5,30.42,West,271,0.0,4.0,83,0.00,,---,0.00,79.00,VWS V14.00,2013-03-13 14:44:00,
2013-03-13 09:50:00,15.0,10.5,30.42,NW,313,3.0,4.0,82,0.00,,---,0.00,113.00,VWS V14.00,2013-03-13 14:50:00,
2013-03-13 09:55:00,15.3,10.8,30.43,NW,308,0.0,4.0,82,0.00,,---,0.00,167.00,VWS V14.00,2013-03-13 14:55:00,
2013-03-13 10:00:00,15.8,11.3,30.42,NNW,338,3.0,5.0,82,0.00,,---,0.00,283.00,VWS V14.00,2013-03-13 15:00:00,
2013-03-13 10:05:00,16.2,11.4,30.43,North,355,6.0,6.0,81,0.00,,---,0.00,229.00,VWS V14.00,2013-03-13 15:05:00,
2013-03-13 10:10:00,16.2,11.1,30.43,NW,304,2.0,6.0,80,0.00,,---,0.00,72.00,VWS V14.00,2013-03-13 15:10:00,
2013-03-13 10:15:00,16.3,11.2,30.43,NW,311,4.0,6.0,80,0.00,,---,0.00,142.00,VWS V14.00,2013-03-13 15:15:00,
2013-03-13 10:20:00,16.3,11.2,30.43,NW,305,3.0,6.0,80,0.00,,---,0.00,179.00,VWS V14.00,2013-03-13 15:20:00,
2013-03-13 10:25:00,16.6,11.2,30.43,NW,314,4.0,6.0,79,0.00,,---,0.00,176.00,VWS V14.00,2013-03-13 15:25:00,
2013-03-13 10:30:00,16.7,11.3,30.43,WNW,302,0.0,5.0,79,0.00,,---,0.00,213.00,VWS V14.00,2013-03-13 15:30:00,
2013-03-13 10:35:00,16.9,11.5,30.44,NW,304,1.0,5.0,79,0.00,,---,0.00,220.00,VWS V14.00,2013-03-13 15:35:00,
2013-03-13 10:40:00,17.1,11.4,30.44,NW,310,2.0,5.0,78,0.00,,---,0.00,239.00,VWS V14.00,2013-03-13 15:40:00,
2013-03-13 10:45:00,17.3,11.6,30.44,NW,305,1.0,5.0,78,0.00,,---,0.00,345.00,VWS V14.00,2013-03-13 15:45:00,
2013-03-13 10:50:00,17.7,11.7,30.44,WNW,300,0.0,5.0,77,0.00,,---,0.00,292.00,VWS V14.00,2013-03-13 15:50:00,
2013-03-13 10:55:00,18.2,12.2,30.44,WNW,301,0.0,5.0,77,0.00,,---,0.00,408.00,VWS V14.00,2013-03-13 15:55:00,
2013-03-13 11:00:00,18.5,12.2,30.44,WNW,302,0.0,2.0,76,0.00,,---,0.00,269.00,VWS V14.00,2013-03-13 16:00:00,
2013-03-13 11:05:00,18.9,12.0,30.44,WNW,302,2.0,2.0,74,0.00,,---,0.00,265.00,VWS V14.00,2013-03-13 16:05:00,
2013-03-13 11:10:00,19.3,12.7,30.44,NW,318,2.0,4.0,75,0.00,,---,0.00,343.00,VWS V14.00,2013-03-13 16:10:00,
2013-03-13 11:15:00,19.6,12.7,30.44,NW,311,2.0,5.0,74,0.00,,---,0.00,178.00,VWS V14.00,2013-03-13 16:15:00,
2013-03-13 11:21:00,19.8,12.6,30.44,NW,316,0.0,5.0,73,0.00,,---,0.00,292.00,VWS V14.00,2013-03-13 16:21:00,
2013-03-13 11:26:00,20.1,12.5,30.44,NW,317,1.0,5.0,72,0.00,,---,0.00,417.00,VWS V14.00,2013-03-13 16:26:00,
2013-03-13 11:31:00,20.6,13.0,30.44,NW,309,1.0,4.0,72,0.00,,---,0.00,352.00,VWS V14.00,2013-03-13 16:31:00,
2013-03-13 11:36:00,21.1,13.5,30.44,NW,315,1.0,4.0,72,0.00,,---,0.00,374.00,VWS V14.00,2013-03-13 16:36:00,
2013-03-13 11:41:00,21.5,13.9,30.44,NW,316,1.0,4.0,72,0.00,,---,0.00,422.00,VWS V14.00,2013-03-13 16:41:00,
2013-03-13 11:46:00,21.9,13.6,30.44,NNW,333,1.0,5.0,70,0.00,,---,0.00,446.00,VWS V14.00,2013-03-13 16:46:00,
2013-03-13 11:51:00,22.3,14.3,30.44,NNW,327,1.0,5.0,71,0.00,,---,0.00,425.00,VWS V14.00,2013-03-13 16:51:00,
2013-03-13 11:56:00,23.0,14.4,30.44,NNW,328,1.0,5.0,69,0.00,,---,0.00,592.00,VWS V14.00,2013-03-13 16:56:00,
2013-03-13 12:01:00,23.4,14.4,30.43,NNW,327,0.0,3.0,68,0.00,,---,0.00,520.00,VWS V14.00,2013-03-13 17:01:00,
2013-03-13 12:07:00,23.8,14.8,30.44,NNW,327,2.0,3.0,68,0.00,,---,0.00,566.00,VWS V14.00,2013-03-13 17:07:00,
2013-03-13 12:12:00,24.1,15.1,30.43,NNW,328,0.0,3.0,68,0.00,,---,0.00,691.00,VWS V14.00,2013-03-13 17:12:00,
2013-03-13 12:17:00,24.7,15.3,30.44,NW,321,2.0,3.0,67,0.00,,---,0.00,698.00,VWS V14.00,2013-03-13 17:17:00,
2013-03-13 12:22:00,24.9,15.2,30.43,NNW,334,0.0,3.0,66,0.00,,---,0.00,742.00,VWS V14.00,2013-03-13 17:22:00,
2013-03-13 12:27:00,25.4,15.6,30.43,NNW,334,0.0,3.0,66,0.00,,---,0.00,752.00,VWS V14.00,2013-03-13 17:27:00,
2013-03-13 12:32:00,26.0,15.9,30.44,South,177,0.0,2.0,65,0.00,,---,0.00,758.00,VWS V14.00,2013-03-13 17:32:00,
2013-03-13 12:37:00,26.4,15.9,30.43,SSE,161,0.0,3.0,64,0.00,,---,0.00,744.00,VWS V14.00,2013-03-13 17:37:00,
2013-03-13 12:42:00,26.7,15.8,30.43,South,170,0.0,3.0,63,0.00,,---,0.00,766.00,VWS V14.00,2013-03-13 17:42:00,
2013-03-13 12:47:00,27.3,16.4,30.43,South,182,1.0,3.0,63,0.00,,---,0.00,773.00,VWS V14.00,2013-03-13 17:47:00,
2013-03-13 12:52:00,27.7,16.0,30.43,South,190,0.0,3.0,61,0.00,,---,0.00,775.00,VWS V14.00,2013-03-13 17:52:00,
2013-03-13 12:57:00,28.0,15.9,30.43,NW,325,2.0,3.0,60,0.00,,---,0.00,779.00,VWS V14.00,2013-03-13 17:57:00,
2013-03-13 13:02:00,28.0,16.3,30.43,SE,146,2.0,2.0,61,0.00,,---,0.00,786.00,VWS V14.00,2013-03-13 18:02:00,
2013-03-13 13:07:00,28.2,16.1,30.43,West,276,0.0,3.0,60,0.00,,---,0.00,784.00,VWS V14.00,2013-03-13 18:07:00,
2013-03-13 13:12:00,28.0,15.9,30.43,SSE,159,2.0,4.0,60,0.00,,---,0.00,786.00,VWS V14.00,2013-03-13 18:12:00,
2013-03-13 13:17:00,28.1,16.0,30.43,SSE,161,1.0,4.0,60,0.00,,---,0.00,789.00,VWS V14.00,2013-03-13 18:17:00,
2013-03-13 13:22:00,28.7,16.6,30.43,West,277,1.0,4.0,60,0.00,,---,0.00,788.00,VWS V14.00,2013-03-13 18:22:00,
2013-03-13 13:27:00,29.0,16.1,30.43,SSE,161,2.0,4.0,58,0.00,,---,0.00,788.00,VWS V14.00,2013-03-13 18:27:00,
2013-03-13 13:32:00,29.2,16.7,30.43,South,176,3.0,3.0,59,0.00,,---,0.00,789.00,VWS V14.00,2013-03-13 18:32:00,
2013-03-13 13:37:00,29.2,17.4,30.43,SSE,163,3.0,5.0,61,0.00,,---,0.00,791.00,VWS V14.00,2013-03-13 18:37:00,
2013-03-13 13:42:00,29.2,17.1,30.43,South,178,1.0,5.0,60,0.00,,---,0.00,791.00,VWS V14.00,2013-03-13 18:42:00,
2013-03-13 13:48:00,29.5,17.0,30.43,South,183,1.0,5.0,59,0.00,,---,0.00,795.00,VWS V14.00,2013-03-13 18:48:00,
2013-03-13 13:53:00,29.5,17.3,30.43,NNW,340,1.0,5.0,60,0.00,,---,0.00,791.00,VWS V14.00,2013-03-13 18:53:00,
2013-03-13 13:58:00,29.8,18.0,30.42,SSW,194,2.0,5.0,61,0.00,,---,0.00,765.00,VWS V14.00,2013-03-13 18:58:00,
2013-03-13 14:03:00,29.9,18.5,30.42,WSW,238,2.0,5.0,62,0.00,,---,0.00,795.00,VWS V14.00,2013-03-13 19:03:00,
2013-03-13 14:08:00,30.1,18.3,30.42,SW,227,1.0,5.0,61,0.00,,---,0.00,782.00,VWS V14.00,2013-03-13 19:08:00,
2013-03-13 14:13:00,30.1,18.3,30.42,SSE,163,0.0,5.0,61,0.00,,---,0.00,729.00,VWS V14.00,2013-03-13 19:13:00,
2013-03-13 14:18:00,29.9,18.1,30.42,ENE,78,0.0,5.0,61,0.00,,---,0.00,726.00,VWS V14.00,2013-03-13 19:18:00,
2013-03-13 14:23:00,29.9,18.5,30.42,South,178,1.0,5.0,62,0.00,,---,0.00,724.00,VWS V14.00,2013-03-13 19:23:00,
2013-03-13 14:28:00,29.6,17.8,30.42,WNW,295,0.0,1.0,61,0.00,,---,0.00,721.00,VWS V14.00,2013-03-13 19:28:00,
2013-03-13 14:33:00,29.4,17.2,30.42,NNW,341,0.0,6.0,60,0.00,,---,0.00,721.00,VWS V14.00,2013-03-13 19:33:00,
2013-03-13 14:38:00,28.7,18.1,30.41,SW,232,0.0,6.0,64,0.00,,---,0.00,541.00,VWS V14.00,2013-03-13 19:38:00,
2013-03-13 14:43:00,28.8,17.8,30.41,NW,322,0.0,6.0,63,0.00,,---,0.00,592.00,VWS V14.00,2013-03-13 19:43:00,
2013-03-13 14:48:00,28.8,17.8,30.41,NW,307,2.0,6.0,63,0.00,,---,0.00,559.00,VWS V14.00,2013-03-13 19:48:00,
2013-03-13 14:53:00,28.8,17.8,30.41,WSW,248,0.0,6.0,63,0.00,,---,0.00,454.00,VWS V14.00,2013-03-13 19:53:00,
2013-03-13 14:58:00,29.0,18.0,30.40,West,268,0.0,2.0,63,0.00,,---,0.00,613.00,VWS V14.00,2013-03-13 19:58:00,
2013-03-13 15:04:00,29.0,18.0,30.40,WNW,285,0.0,3.0,63,0.00,,---,0.00,438.00,VWS V14.00,2013-03-13 20:04:00,
2013-03-13 15:09:00,29.2,18.2,30.40,WNW,295,4.0,7.0,63,0.00,,---,0.00,531.00,VWS V14.00,2013-03-13 20:09:00,
2013-03-13 15:14:00,29.0,17.2,30.40,SW,226,1.0,7.0,61,0.00,,---,0.00,359.00,VWS V14.00,2013-03-13 20:14:00,
2013-03-13 15:19:00,29.0,16.9,30.40,SW,230,0.0,7.0,60,0.00,,---,0.00,483.00,VWS V14.00,2013-03-13 20:19:00,
2013-03-13 15:24:00,28.8,17.8,30.40,NW,318,1.0,7.0,63,0.00,,---,0.00,422.00,VWS V14.00,2013-03-13 20:24:00,
2013-03-13 15:29:00,28.8,17.1,30.40,SW,217,1.0,3.0,61,0.00,,---,0.00,371.00,VWS V14.00,2013-03-13 20:29:00,
2013-03-13 15:34:00,28.6,16.9,30.40,SW,227,0.0,3.0,61,0.00,,---,0.00,237.00,VWS V14.00,2013-03-13 20:34:00,
2013-03-13 15:39:00,28.7,16.6,30.39,WSW,246,0.0,6.0,60,0.00,,---,0.00,364.00,VWS V14.00,2013-03-13 20:39:00,
2013-03-13 15:44:00,28.9,17.2,30.40,WNW,302,0.0,6.0,61,0.00,,---,0.00,360.00,VWS V14.00,2013-03-13 20:44:00,
2013-03-13 15:49:00,28.5,16.8,30.40,SW,236,0.0,6.0,61,0.00,,---,0.00,329.00,VWS V14.00,2013-03-13 20:49:00,
2013-03-13 15:54:00,28.7,17.3,30.40,SW,233,1.0,6.0,62,0.00,,---,0.00,587.00,VWS V14.00,2013-03-13 20:54:00,
2013-03-13 16:00:00,28.8,17.4,30.40,South,184,2.0,4.0,62,0.00,,---,0.00,520.00,VWS V14.00,2013-03-13 21:00:00,
2013-03-13 16:05:00,29.2,17.8,30.40,SSW,203,0.0,4.0,62,0.00,,---,0.00,345.00,VWS V14.00,2013-03-13 21:05:00,
2013-03-13 16:10:00,29.5,17.3,30.40,WSW,252,1.0,4.0,60,0.00,,---,0.00,374.00,VWS V14.00,2013-03-13 21:10:00,
2013-03-13 16:15:00,29.4,17.2,30.40,WSW,254,0.0,4.0,60,0.00,,---,0.00,151.00,VWS V14.00,2013-03-13 21:15:00,
2013-03-13 16:20:00,29.4,17.6,30.40,SSE,165,1.0,4.0,61,0.00,,---,0.00,128.00,VWS V14.00,2013-03-13 21:20:00,
2013-03-13 16:25:00,29.2,17.4,30.39,West,269,1.0,4.0,61,0.00,,---,0.00,172.00,VWS V14.00,2013-03-13 21:25:00,
2013-03-13 16:30:00,28.8,17.1,30.39,WSW,245,1.0,6.0,61,0.00,,---,0.00,149.00,VWS V14.00,2013-03-13 21:30:00,
2013-03-13 16:35:00,28.5,16.4,30.39,WSW,249,2.0,6.0,60,0.00,,---,0.00,265.00,VWS V14.00,2013-03-13 21:35:00,
2013-03-13 16:40:00,28.0,17.0,30.39,WNW,289,0.0,6.0,63,0.00,,---,0.00,109.00,VWS V14.00,2013-03-13 21:40:00,
2013-03-13 16:46:00,27.8,17.2,30.39,West,278,0.0,6.0,64,0.00,,---,0.00,67.00,VWS V14.00,2013-03-13 21:46:00,
2013-03-13 16:51:00,27.7,17.1,30.39,SW,232,0.0,6.0,64,0.00,,---,0.00,165.00,VWS V14.00,2013-03-13 21:51:00,
2013-03-13 16:56:00,27.7,17.5,30.39,South,174,0.0,6.0,65,0.00,,---,0.00,58.00,VWS V14.00,2013-03-13 21:56:00,
2013-03-13 17:01:00,27.7,17.5,30.39,West,260,0.0,2.0,65,0.00,,---,0.00,123.00,VWS V14.00,2013-03-13 22:01:00,
2013-03-13 17:06:00,27.8,17.9,30.38,South,184,0.0,2.0,66,0.00,,---,0.00,95.00,VWS V14.00,2013-03-13 22:06:00,
2013-03-13 17:11:00,27.8,17.9,30.38,South,177,0.0,2.0,66,0.00,,---,0.00,72.00,VWS V14.00,2013-03-13 22:11:00,
2013-03-13 17:16:00,27.6,17.7,30.38,SSE,155,0.0,4.0,66,0.00,,---,0.00,149.00,VWS V14.00,2013-03-13 22:16:00,
2013-03-13 17:21:00,27.5,18.0,30.38,SSE,159,2.0,4.0,67,0.00,,---,0.00,69.00,VWS V14.00,2013-03-13 22:21:00,
2013-03-13 17:27:00,27.5,18.0,30.38,SSE,167,0.0,4.0,67,0.00,,---,0.00,77.00,VWS V14.00,2013-03-13 22:27:00,
2013-03-13 17:32:00,27.4,17.9,30.38,South,175,0.0,4.0,67,0.00,,---,0.00,105.00,VWS V14.00,2013-03-13 22:32:00,
2013-03-13 17:37:00,27.3,17.5,30.37,South,176,1.0,4.0,66,0.00,,---,0.00,84.00,VWS V14.00,2013-03-13 22:37:00,
2013-03-13 17:42:00,27.2,17.4,30.37,SSE,156,1.0,4.0,66,0.00,,---,0.00,100.00,VWS V14.00,2013-03-13 22:42:00,
2013-03-13 17:47:00,27.2,17.0,30.36,ESE,123,0.0,6.0,65,0.00,,---,0.00,65.00,VWS V14.00,2013-03-13 22:47:00,
2013-03-13 17:52:00,27.0,16.8,30.36,West,263,0.0,6.0,65,0.00,,---,0.00,47.00,VWS V14.00,2013-03-13 22:52:00,
2013-03-13 17:57:00,27.0,16.8,30.36,West,263,0.0,6.0,65,0.00,,---,0.00,47.00,VWS V14.00,2013-03-13 22:57:00,
2013-03-13 18:02:00,26.9,17.1,30.36,SW,231,0.0,1.0,66,0.00,,---,0.00,53.00,VWS V14.00,2013-03-13 23:02:00,
2013-03-13 18:07:00,26.8,17.0,30.36,SW,231,0.0,1.0,66,0.00,,---,0.00,74.00,VWS V14.00,2013-03-13 23:07:00,
2013-03-13 18:12:00,26.7,16.9,30.36,SW,231,0.0,1.0,66,0.00,,---,0.00,70.00,VWS V14.00,2013-03-13 23:12:00,
2013-03-13 18:17:00,26.6,16.4,30.37,NW,325,0.0,2.0,65,0.00,,---,0.00,60.00,VWS V14.00,2013-03-13 23:17:00,
2013-03-13 18:23:00,26.4,16.2,30.37,South,170,0.0,2.0,65,0.00,,---,0.00,53.00,VWS V14.00,2013-03-13 23:23:00,
2013-03-13 18:28:00,26.3,15.8,30.37,SSE,168,0.0,1.0,64,0.00,,---,0.00,39.00,VWS V14.00,2013-03-13 23:28:00,
2013-03-13 18:33:00,26.2,16.1,30.37,SSE,168,1.0,2.0,65,0.00,,---,0.00,33.00,VWS V14.00,2013-03-13 23:33:00,
2013-03-13 18:38:00,25.9,15.4,30.37,South,176,0.0,3.0,64,0.00,,---,0.00,26.00,VWS V14.00,2013-03-13 23:38:00,
2013-03-13 18:43:00,25.7,15.6,30.37,South,176,0.0,3.0,65,0.00,,---,0.00,21.00,VWS V14.00,2013-03-13 23:43:00,
2013-03-13 18:48:00,25.4,15.6,30.37,South,177,0.0,3.0,66,0.00,,---,0.00,18.00,VWS V14.00,2013-03-13 23:48:00,
2013-03-13 18:53:00,25.1,16.0,30.36,South,177,0.0,3.0,68,0.00,,---,0.00,14.00,VWS V14.00,2013-03-13 23:53:00,
2013-03-13 18:58:00,24.8,15.8,30.37,South,177,0.0,0.0,68,0.00,,---,0.00,12.00,VWS V14.00,2013-03-13 23:58:00,
2013-03-13 19:03:00,24.4,15.7,30.37,South,177,0.0,0.0,69,0.00,,---,0.00,11.00,VWS V14.00,2013-03-14 00:03:00,
2013-03-13 19:09:00,24.1,15.4,30.36,South,177,0.0,0.0,69,0.00,,---,0.00,7.00,VWS V14.00,2013-03-14 00:09:00,
2013-03-13 19:13:00,23.8,15.5,30.37,South,177,0.0,1.0,70,0.00,,---,0.00,5.00,VWS V14.00,2013-03-14 00:13:00,
2013-03-13 19:19:00,23.4,15.1,30.37,South,178,1.0,2.0,70,0.00,,---,0.00,0.00,VWS V14.00,2013-03-14 00:19:00,
2013-03-13 19:24:00,23.1,15.1,30.38,South,178,0.0,2.0,71,0.00,,---,0.00,0.00,VWS V14.00,2013-03-14 00:24:00,
2013-03-13 19:29:00,22.7,14.7,30.38,South,180,0.0,0.0,71,0.00,,---,0.00,0.00,VWS V14.00,2013-03-14 00:29:00,
2013-03-13 19:34:00,22.5,15.2,30.37,South,181,0.0,1.0,73,0.00,,---,0.00,0.00,VWS V14.00,2013-03-14 00:34:00,
2013-03-13 19:39:00,22.3,15.0,30.37,South,181,0.0,1.0,73,0.00,,---,0.00,0.00,VWS V14.00,2013-03-14 00:39:00,
2013-03-13 19:44:00,22.1,15.1,30.37,South,182,0.0,1.0,74,0.00,,---,0.00,0.00,VWS V14.00,2013-03-14 00:44:00,
2013-03-13 19:49:00,21.9,14.9,30.37,South,182,0.0,1.0,74,0.00,,---,0.00,0.00,VWS V14.00,2013-03-14 00:49:00,
2013-03-13 19:54:00,21.7,15.0,30.37,South,182,0.0,1.0,75,0.00,,---,0.00,0.00,VWS V14.00,2013-03-14 00:54:00,
2013-03-13 19:59:00,21.6,15.2,30.37,South,182,0.0,0.0,76,0.00,,---,0.00,0.00,VWS V14.00,2013-03-14 00:59:00,
2013-03-13 20:04:00,21.6,15.5,30.36,South,182,0.0,0.0,77,0.00,,---,0.00,0.00,VWS V14.00,2013-03-14 01:04:00,
2013-03-13 20:09:00,21.6,15.5,30.36,South,182,0.0,0.0,77,0.00,,---,0.00,0.00,VWS V14.00,2013-03-14 01:09:00,
2013-03-13 20:14:00,21.5,15.4,30.36,South,182,0.0,0.0,77,0.00,,---,0.00,0.00,VWS V14.00,2013-03-14 01:14:00,
2013-03-13 20:19:00,21.4,15.3,30.36,South,182,0.0,0.0,77,0.00,,---,0.00,0.00,VWS V14.00,2013-03-14 01:19:00,
2013-03-13 20:25:00,21.3,15.5,30.36,South,182,0.0,0.0,78,0.00,,---,0.00,0.00,VWS V14.00,2013-03-14 01:25:00,
2013-03-13 20:30:00,21.3,15.8,30.36,South,182,0.0,0.0,79,0.00,,---,0.00,0.00,VWS V14.00,2013-03-14 01:30:00,
2013-03-13 20:35:00,21.3,15.8,30.35,South,182,0.0,0.0,79,0.00,,---,0.00,0.00,VWS V14.00,2013-03-14 01:35:00,
2013-03-13 20:40:00,21.3,15.8,30.35,South,182,0.0,0.0,79,0.00,,---,0.00,0.00,VWS V14.00,2013-03-14 01:40:00,
2013-03-13 20:45:00,21.3,16.4,30.35,South,182,0.0,0.0,81,0.00,,---,0.00,0.00,VWS V14.00,2013-03-14 01:45:00,
2013-03-13 20:50:00,21.3,16.1,30.34,South,182,0.0,0.0,80,0.00,,---,0.00,0.00,VWS V14.00,2013-03-14 01:50:00,
2013-03-13 20:55:00,21.3,16.1,30.35,South,182,0.0,0.0,80,0.00,,---,0.00,0.00,VWS V14.00,2013-03-14 01:55:00,
2013-03-13 21:00:00,21.1,15.9,30.35,South,182,0.0,0.0,80,0.00,,---,0.00,0.00,VWS V14.00,2013-03-14 02:00:00,
2013-03-13 21:05:00,21.0,15.8,30.35,South,182,0.0,0.0,80,0.00,,---,0.00,0.00,VWS V14.00,2013-03-14 02:05:00,
2013-03-13 21:10:00,20.8,15.6,30.34,South,182,0.0,0.0,80,0.00,,---,0.00,0.00,VWS V14.00,2013-03-14 02:10:00,
2013-03-13 21:15:00,20.7,15.8,30.34,South,182,0.0,0.0,81,0.00,,---,0.00,0.00,VWS V14.00,2013-03-14 02:15:00,
2013-03-13 21:20:00,20.6,15.7,30.34,South,182,0.0,0.0,81,0.00,,---,0.00,0.00,VWS V14.00,2013-03-14 02:20:00,
2013-03-13 21:26:00,20.6,16.0,30.33,South,182,0.0,0.0,82,0.00,,---,0.00,0.00,VWS V14.00,2013-03-14 02:26:00,
2013-03-13 21:31:00,20.5,15.9,30.34,South,182,0.0,0.0,82,0.00,,---,0.00,0.00,VWS V14.00,2013-03-14 02:31:00,
2013-03-13 21:36:00,20.5,16.2,30.34,South,182,0.0,0.0,83,0.00,,---,0.00,0.00,VWS V14.00,2013-03-14 02:36:00,
2013-03-13 21:41:00,20.5,15.9,30.33,South,182,0.0,0.0,82,0.00,,---,0.00,0.00,VWS V14.00,2013-03-14 02:41:00,
2013-03-13 21:46:00,20.5,15.9,30.33,South,182,0.0,0.0,82,0.00,,---,0.00,0.00,VWS V14.00,2013-03-14 02:46:00,
2013-03-13 21:51:00,20.4,16.1,30.33,South,182,0.0,0.0,83,0.00,,---,0.00,0.00,VWS V14.00,2013-03-14 02:51:00,
2013-03-13 21:56:00,20.4,16.1,30.33,South,182,0.0,0.0,83,0.00,,---,0.00,0.00,VWS V14.00,2013-03-14 02:56:00,
2013-03-13 22:01:00,20.7,16.4,30.33,South,182,0.0,0.0,83,0.00,,---,0.00,0.00,VWS V14.00,2013-03-14 03:01:00,
2013-03-13 22:06:00,20.9,16.6,30.33,South,182,0.0,0.0,83,0.00,,---,0.00,0.00,VWS V14.00,2013-03-14 03:06:00,
2013-03-13 22:12:00,21.1,16.8,30.32,South,182,0.0,0.0,83,0.00,,---,0.00,0.00,VWS V14.00,2013-03-14 03:12:00,
2013-03-13 22:17:00,21.2,16.6,30.33,South,182,0.0,0.0,82,0.00,,---,0.00,0.00,VWS V14.00,2013-03-14 03:17:00,
2013-03-13 22:22:00,21.3,16.7,30.32,South,182,0.0,0.0,82,0.00,,---,0.00,0.00,VWS V14.00,2013-03-14 03:22:00,
2013-03-13 22:27:00,21.4,16.8,30.32,South,182,0.0,0.0,82,0.00,,---,0.00,0.00,VWS V14.00,2013-03-14 03:27:00,
2013-03-13 22:32:00,21.5,17.1,30.32,South,182,0.0,0.0,83,0.00,,---,0.00,0.00,VWS V14.00,2013-03-14 03:32:00,
2013-03-13 22:37:00,21.5,16.9,30.32,South,182,0.0,0.0,82,0.00,,---,0.00,0.00,VWS V14.00,2013-03-14 03:37:00,
2013-03-13 22:42:00,21.5,17.1,30.32,South,182,0.0,0.0,83,0.00,,---,0.00,0.00,VWS V14.00,2013-03-14 03:42:00,
2013-03-13 22:47:00,21.7,17.3,30.32,South,182,0.0,0.0,83,0.00,,---,0.00,0.00,VWS V14.00,2013-03-14 03:47:00,
2013-03-13 22:52:00,21.8,17.4,30.31,South,182,0.0,0.0,83,0.00,,---,0.00,0.00,VWS V14.00,2013-03-14 03:52:00,
2013-03-13 22:57:00,22.0,17.6,30.31,South,182,0.0,0.0,83,0.00,,---,0.00,0.00,VWS V14.00,2013-03-14 03:57:00,
2013-03-13 23:00:00,22.0,17.6,30.32,South,182,0.0,0.0,83,0.00,,---,0.00,0.00,VWS V14.00,2013-03-14 04:00:00,
2013-03-13 23:01:00,22.1,17.7,30.31,South,182,0.0,0.0,83,0.00,,---,0.00,0.00,VWS V14.00,2013-03-14 04:01:00,
2013-03-13 23:06:00,22.2,17.8,30.31,South,182,0.0,1.0,83,0.00,,---,0.00,0.00,VWS V14.00,2013-03-14 04:06:00,
2013-03-13 23:11:00,22.2,17.8,30.31,South,182,0.0,1.0,83,0.00,,---,0.00,0.00,VWS V14.00,2013-03-14 04:11:00,
2013-03-13 23:16:00,22.4,18.0,30.31,South,182,0.0,1.0,83,0.00,,---,0.00,0.00,VWS V14.00,2013-03-14 04:16:00,
2013-03-13 23:21:00,22.4,18.0,30.31,South,182,0.0,1.0,83,0.00,,---,0.00,0.00,VWS V14.00,2013-03-14 04:21:00,
2013-03-13 23:26:00,22.6,18.2,30.31,South,182,0.0,1.0,83,0.00,,---,0.00,0.00,VWS V14.00,2013-03-14 04:26:00,
2013-03-13 23:31:00,22.7,18.3,30.31,South,182,0.0,0.0,83,0.00,,---,0.00,0.00,VWS V14.00,2013-03-14 04:31:00,
2013-03-13 23:37:00,22.8,18.7,30.31,South,182,0.0,1.0,84,0.00,,---,0.00,0.00,VWS V14.00,2013-03-14 04:37:00,
2013-03-13 23:42:00,23.0,18.9,30.31,South,182,0.0,1.0,84,0.00,,---,0.00,0.00,VWS V14.00,2013-03-14 04:42:00,
2013-03-13 23:47:00,23.0,18.9,30.30,South,182,0.0,1.0,84,0.00,,---,0.00,0.00,VWS V14.00,2013-03-14 04:47:00,
2013-03-13 23:52:00,23.1,19.0,30.30,South,182,0.0,1.0,84,0.00,,---,0.00,0.00,VWS V14.00,2013-03-14 04:52:00,
2013-03-13 23:57:00,23.2,18.8,30.30,South,180,0.0,1.0,83,0.00,,---,0.00,0.00,VWS V14.00,2013-03-14 04:57:00,